Time,TemperatureF,DewpointF,PressureIn,WindDirection,WindDirectionDegrees,WindSpeedMPH,WindSpeedGustMPH,Humidity,HourlyPrecipIn,Conditions,Clouds,dailyrainin,SoftwareType,DateUTC
2013-01-17 00:04:00,57.0,16.3,30.24,North,6,5.0,7.6,20,0.00,,,-99.99,FreeWX-Wi 1.02,2013-01-17 08:04:00,
2013-01-17 00:09:00,57.4,15.4,30.24,North,4,5.0,8.1,19,0.00,,,-99.99,FreeWX-Wi 1.02,2013-01-17 08:09:00,
2013-01-17 00:14:00,59.7,17.4,30.21,North,3,5.0,8.7,19,0.00,,,-99.99,FreeWX-Wi 1.02,2013-01-17 08:14:00,
2013-01-17 00:19:00,60.3,17.8,30.21,North,3,6.0,10.1,19,0.00,,,-99.99,FreeWX-Wi 1.02,2013-01-17 08:19:00,
2013-01-17 00:24:00,60.1,17.8,30.21,North,5,6.0,7.6,19,0.00,,,-99.99,FreeWX-Wi 1.02,2013-01-17 08:24:00,
2013-01-17 00:29:00,60.4,18.0,30.24,North,5,6.0,8.3,19,0.00,,,-99.99,FreeWX-Wi 1.02,2013-01-17 08:29:00,
2013-01-17 00:34:00,61.2,18.5,30.24,North,7,6.0,10.1,19,0.00,,,-99.99,FreeWX-Wi 1.02,2013-01-17 08:34:00,
2013-01-17 00:39:00,60.4,18.0,30.24,North,9,6.0,8.1,19,0.00,,,-99.99,FreeWX-Wi 1.02,2013-01-17 08:39:00,
2013-01-17 00:44:00,58.1,16.2,30.21,NNE,18,5.0,5.0,19,0.00,,,-99.99,FreeWX-Wi 1.02,2013-01-17 08:44:00,
2013-01-17 00:49:00,57.2,15.3,30.21,NNE,26,4.0,4.0,19,0.00,,,-99.99,FreeWX-Wi 1.02,2013-01-17 08:49:00,
2013-01-17 00:54:00,55.8,15.3,30.21,NE,34,3.0,3.6,20,0.00,,,-99.99,FreeWX-Wi 1.02,2013-01-17 08:54:00,
2013-01-17 00:59:00,55.8,15.3,30.24,NE,43,3.0,6.3,20,0.00,,,-99.99,FreeWX-Wi 1.02,2013-01-17 08:59:00,
2013-01-17 01:04:00,56.7,16.0,30.24,NE,52,2.0,6.3,20,0.00,,,-99.99,FreeWX-Wi 1.02,2013-01-17 09:04:00,
2013-01-17 01:09:00,57.0,16.3,30.24,NE,54,2.0,5.4,20,0.00,,,-99.99,FreeWX-Wi 1.02,2013-01-17 09:09:00,
2013-01-17 01:14:00,56.5,16.0,30.21,ENE,60,3.0,7.6,20,0.00,,,-99.99,FreeWX-Wi 1.02,2013-01-17 09:14:00,
2013-01-17 01:19:00,56.7,16.0,30.21,ENE,65,3.0,5.4,20,0.00,,,-99.99,FreeWX-Wi 1.02,2013-01-17 09:19:00,
2013-01-17 01:24:00,56.8,16.2,30.21,ENE,65,3.0,6.3,20,0.00,,,-99.99,FreeWX-Wi 1.02,2013-01-17 09:24:00,
2013-01-17 01:29:00,56.8,16.2,30.21,NE,52,2.0,3.1,20,0.00,,,-99.99,FreeWX-Wi 1.02,2013-01-17 09:29:00,
2013-01-17 01:34:00,55.8,15.3,30.21,NE,40,2.0,3.6,20,0.00,,,-99.99,FreeWX-Wi 1.02,2013-01-17 09:34:00,
2013-01-17 01:39:00,53.8,13.6,30.21,NNE,19,2.0,3.6,20,0.00,,,-99.99,FreeWX-Wi 1.02,2013-01-17 09:39:00,
2013-01-17 01:44:00,52.3,13.6,30.24,North,357,1.0,4.9,21,0.00,,,-99.99,FreeWX-Wi 1.02,2013-01-17 09:44:00,
2013-01-17 01:49:00,51.6,12.9,30.24,NNW,341,1.0,2.7,21,0.00,,,-99.99,FreeWX-Wi 1.02,2013-01-17 09:49:00,
2013-01-17 01:54:00,51.8,13.1,30.24,North,-999,0.0,3.6,21,0.00,,,-99.99,FreeWX-Wi 1.02,2013-01-17 09:54:00,
2013-01-17 01:59:00,53.1,14.2,30.21,North,-999,0.0,4.9,21,0.00,,,-99.99,FreeWX-Wi 1.02,2013-01-17 09:59:00,
2013-01-17 02:04:00,52.3,13.6,30.21,North,-999,0.0,3.6,21,0.00,,,-99.99,FreeWX-Wi 1.02,2013-01-17 10:04:00,
2013-01-17 02:09:00,52.2,13.5,30.21,NNW,336,1.0,5.4,21,0.00,,,-99.99,FreeWX-Wi 1.02,2013-01-17 10:09:00,
2013-01-17 02:14:00,53.2,14.4,30.21,North,351,1.0,7.6,21,0.00,,,-99.99,FreeWX-Wi 1.02,2013-01-17 10:14:00,
2013-01-17 02:19:00,53.1,14.2,30.21,NNE,14,1.0,6.3,21,0.00,,,-99.99,FreeWX-Wi 1.02,2013-01-17 10:19:00,
2013-01-17 02:24:00,55.0,14.7,30.21,NE,35,2.0,8.1,20,0.00,,,-99.99,FreeWX-Wi 1.02,2013-01-17 10:24:00,
2013-01-17 02:30:00,54.9,14.5,30.21,NE,53,2.0,7.6,20,0.00,,,-99.99,FreeWX-Wi 1.02,2013-01-17 10:30:00,
2013-01-17 02:35:00,54.5,14.2,30.21,ENE,64,2.0,4.0,20,0.00,,,-99.99,FreeWX-Wi 1.02,2013-01-17 10:35:00,
2013-01-17 02:40:00,54.3,14.2,30.21,ENE,68,2.0,4.0,20,0.00,,,-99.99,FreeWX-Wi 1.02,2013-01-17 10:40:00,
2013-01-17 02:45:00,53.6,13.5,30.21,ENE,71,2.0,0.0,20,0.00,,,-99.99,FreeWX-Wi 1.02,2013-01-17 10:45:00,
2013-01-17 02:50:00,52.3,13.6,30.21,ENE,77,2.0,4.5,21,0.00,,,-99.99,FreeWX-Wi 1.02,2013-01-17 10:50:00,
2013-01-17 02:55:00,51.8,13.1,30.21,East,83,1.0,4.0,21,0.00,,,-99.99,FreeWX-Wi 1.02,2013-01-17 10:55:00,
2013-01-17 03:00:00,51.6,12.9,30.21,East,80,1.0,3.1,21,0.00,,,-99.99,FreeWX-Wi 1.02,2013-01-17 11:00:00,
2013-01-17 03:05:00,51.4,12.7,30.21,ENE,75,1.0,3.1,21,0.00,,,-99.99,FreeWX-Wi 1.02,2013-01-17 11:05:00,
2013-01-17 03:10:00,51.6,12.9,30.21,ENE,63,1.0,4.9,21,0.00,,,-99.99,FreeWX-Wi 1.02,2013-01-17 11:10:00,
2013-01-17 03:15:00,51.8,13.1,30.21,NE,47,1.0,6.3,21,0.00,,,-99.99,FreeWX-Wi 1.02,2013-01-17 11:15:00,
2013-01-17 03:20:00,52.9,14.0,30.21,NNE,24,1.0,5.8,21,0.00,,,-99.99,FreeWX-Wi 1.02,2013-01-17 11:20:00,
2013-01-17 03:25:00,56.5,16.0,30.21,NNE,17,2.0,10.1,20,0.00,,,-99.99,FreeWX-Wi 1.02,2013-01-17 11:25:00,
2013-01-17 03:30:00,56.3,15.8,30.21,NNE,21,3.0,8.3,20,0.00,,,-99.99,FreeWX-Wi 1.02,2013-01-17 11:30:00,
2013-01-17 03:35:00,55.0,14.7,30.21,NNE,22,3.0,8.1,20,0.00,,,-99.99,FreeWX-Wi 1.02,2013-01-17 11:35:00,
2013-01-17 03:40:00,55.4,15.1,30.21,NNE,33,3.0,5.8,20,0.00,,,-99.99,FreeWX-Wi 1.02,2013-01-17 11:40:00,
2013-01-17 03:45:00,54.5,14.2,30.21,NE,52,3.0,5.4,20,0.00,,,-99.99,FreeWX-Wi 1.02,2013-01-17 11:45:00,
2013-01-17 03:50:00,54.5,14.2,30.21,ENE,65,3.0,5.8,20,0.00,,,-99.99,FreeWX-Wi 1.02,2013-01-17 11:50:00,
2013-01-17 03:55:00,54.1,14.0,30.21,ENE,69,2.0,3.1,20,0.00,,,-99.99,FreeWX-Wi 1.02,2013-01-17 11:55:00,
2013-01-17 04:00:00,53.4,14.5,30.21,ENE,70,2.0,4.9,21,0.00,,,-99.99,FreeWX-Wi 1.02,2013-01-17 12:00:00,
2013-01-17 04:05:00,52.9,14.0,30.21,ENE,71,1.0,3.6,21,0.00,,,-99.99,FreeWX-Wi 1.02,2013-01-17 12:05:00,
2013-01-17 04:10:00,52.0,13.3,30.21,ENE,65,1.0,3.6,21,0.00,,,-99.99,FreeWX-Wi 1.02,2013-01-17 12:10:00,
2013-01-17 04:15:00,51.8,13.1,30.21,NE,55,1.0,6.3,21,0.00,,,-99.99,FreeWX-Wi 1.02,2013-01-17 12:15:00,
2013-01-17 04:20:00,51.6,12.9,30.21,NE,50,1.0,4.9,21,0.00,,,-99.99,FreeWX-Wi 1.02,2013-01-17 12:20:00,
2013-01-17 04:25:00,50.4,11.8,30.21,NE,46,2.0,3.6,21,0.00,,,-99.99,FreeWX-Wi 1.02,2013-01-17 12:25:00,
2013-01-17 04:30:00,50.9,10.2,30.21,NE,40,2.0,4.9,19,0.00,,,-99.99,FreeWX-Wi 1.02,2013-01-17 12:30:00,
2013-01-17 04:35:00,50.7,12.2,30.21,NE,34,2.0,4.0,21,0.00,,,-99.99,FreeWX-Wi 1.02,2013-01-17 12:35:00,
2013-01-17 04:40:00,54.0,13.8,30.21,NNE,30,2.0,12.3,20,0.00,,,-99.99,FreeWX-Wi 1.02,2013-01-17 12:40:00,
2013-01-17 04:45:00,55.4,15.1,30.21,NNE,32,3.0,10.1,20,0.00,,,-99.99,FreeWX-Wi 1.02,2013-01-17 12:45:00,
2013-01-17 04:50:00,55.4,15.1,30.21,NNE,33,3.0,10.5,20,0.00,,,-99.99,FreeWX-Wi 1.02,2013-01-17 12:50:00,
2013-01-17 04:55:00,55.9,15.4,30.21,NNE,33,4.0,11.0,20,0.00,,,-99.99,FreeWX-Wi 1.02,2013-01-17 12:55:00,
2013-01-17 05:00:00,57.2,15.3,30.21,NNE,33,5.0,11.0,19,0.00,,,-99.99,FreeWX-Wi 1.02,2013-01-17 13:00:00,
2013-01-17 05:05:00,57.0,16.3,30.21,NE,35,6.0,9.2,20,0.00,,,-99.99,FreeWX-Wi 1.02,2013-01-17 13:05:00,
2013-01-17 05:10:00,57.2,15.3,30.21,NNE,31,6.0,8.1,19,0.00,,,-99.99,FreeWX-Wi 1.02,2013-01-17 13:10:00,
2013-01-17 05:15:00,56.8,16.2,30.21,NNE,29,6.0,8.3,20,0.00,,,-99.99,FreeWX-Wi 1.02,2013-01-17 13:15:00,
2013-01-17 05:20:00,56.3,15.8,30.21,NNE,25,5.0,6.3,20,0.00,,,-99.99,FreeWX-Wi 1.02,2013-01-17 13:20:00,
2013-01-17 05:25:00,55.2,14.9,30.21,NNE,23,4.0,4.0,20,0.00,,,-99.99,FreeWX-Wi 1.02,2013-01-17 13:25:00,
2013-01-17 05:30:00,54.1,14.0,30.21,NNE,22,3.0,3.1,20,0.00,,,-99.99,FreeWX-Wi 1.02,2013-01-17 13:30:00,
2013-01-17 05:35:00,53.2,14.4,30.21,NNE,21,2.0,3.1,21,0.00,,,-99.99,FreeWX-Wi 1.02,2013-01-17 13:35:00,
2013-01-17 05:40:00,52.7,13.8,30.21,NNE,23,1.0,6.3,21,0.00,,,-99.99,FreeWX-Wi 1.02,2013-01-17 13:40:00,
2013-01-17 05:45:00,52.5,13.8,30.21,NNE,33,1.0,5.8,21,0.00,,,-99.99,FreeWX-Wi 1.02,2013-01-17 13:45:00,
2013-01-17 05:50:00,53.8,13.6,30.21,NE,35,1.0,8.3,20,0.00,,,-99.99,FreeWX-Wi 1.02,2013-01-17 13:50:00,
2013-01-17 05:55:00,56.1,15.6,30.21,NNE,33,2.0,10.1,20,0.00,,,-99.99,FreeWX-Wi 1.02,2013-01-17 13:55:00,
2013-01-17 06:00:00,55.4,15.1,30.21,NNE,31,2.0,5.4,20,0.00,,,-99.99,FreeWX-Wi 1.02,2013-01-17 14:00:00,
2013-01-17 06:05:00,54.7,14.4,30.21,NE,34,2.0,4.0,20,0.00,,,-99.99,FreeWX-Wi 1.02,2013-01-17 14:05:00,
2013-01-17 06:10:00,53.8,13.6,30.21,NE,39,2.0,4.9,20,0.00,,,-99.99,FreeWX-Wi 1.02,2013-01-17 14:10:00,
2013-01-17 06:15:00,53.1,14.2,30.24,NE,39,2.0,4.9,21,0.00,,,-99.99,FreeWX-Wi 1.02,2013-01-17 14:15:00,
2013-01-17 06:20:00,53.2,14.4,30.24,NE,45,2.0,6.3,21,0.00,,,-99.99,FreeWX-Wi 1.02,2013-01-17 14:20:00,
2013-01-17 06:25:00,55.0,14.7,30.24,NE,50,3.0,8.7,20,0.00,,,-99.99,FreeWX-Wi 1.02,2013-01-17 14:25:00,
2013-01-17 06:30:00,55.8,15.3,30.24,NE,55,4.0,13.2,20,0.00,,,-99.99,FreeWX-Wi 1.02,2013-01-17 14:30:00,
2013-01-17 06:35:00,57.6,15.6,30.24,NE,53,5.0,15.0,19,0.00,,,-99.99,FreeWX-Wi 1.02,2013-01-17 14:35:00,
2013-01-17 06:40:00,56.7,16.0,30.24,NE,50,5.0,8.7,20,0.00,,,-99.99,FreeWX-Wi 1.02,2013-01-17 14:40:00,
2013-01-17 06:45:00,55.9,15.4,30.24,NE,48,5.0,7.6,20,0.00,,,-99.99,FreeWX-Wi 1.02,2013-01-17 14:45:00,
2013-01-17 06:50:00,55.2,14.9,30.24,NE,50,6.0,8.7,20,0.00,,,-99.99,FreeWX-Wi 1.02,2013-01-17 14:50:00,
2013-01-17 06:55:00,55.2,14.9,30.24,NE,53,5.0,7.6,20,0.00,,,-99.99,FreeWX-Wi 1.02,2013-01-17 14:55:00,
2013-01-17 07:00:00,54.0,13.8,30.24,ENE,70,4.0,7.6,20,0.00,,,-99.99,FreeWX-Wi 1.02,2013-01-17 15:00:00,
2013-01-17 07:05:00,53.2,14.4,30.24,East,88,4.0,5.8,21,0.00,,,-99.99,FreeWX-Wi 1.02,2013-01-17 15:05:00,
2013-01-17 07:10:00,53.1,14.2,30.24,East,84,3.0,5.4,21,0.00,,,-99.99,FreeWX-Wi 1.02,2013-01-17 15:10:00,
2013-01-17 07:15:00,52.7,13.8,30.24,East,80,2.0,3.6,21,0.00,,,-99.99,FreeWX-Wi 1.02,2013-01-17 15:15:00,
2013-01-17 07:20:00,52.0,13.3,30.24,East,79,2.0,4.0,21,0.00,,,-99.99,FreeWX-Wi 1.02,2013-01-17 15:20:00,
2013-01-17 07:25:00,50.9,10.2,30.24,ENE,73,2.0,3.1,19,0.00,,,-99.99,FreeWX-Wi 1.02,2013-01-17 15:25:00,
2013-01-17 07:30:00,50.2,9.5,30.27,ENE,58,1.0,3.6,19,0.00,,,-99.99,FreeWX-Wi 1.02,2013-01-17 15:30:00,
2013-01-17 07:35:00,50.5,12.0,30.27,NE,53,1.0,3.6,21,0.00,,,-99.99,FreeWX-Wi 1.02,2013-01-17 15:35:00,
2013-01-17 07:40:00,52.0,13.3,30.27,NE,53,1.0,3.6,21,0.00,,,-99.99,FreeWX-Wi 1.02,2013-01-17 15:40:00,
2013-01-17 07:45:00,52.9,14.0,30.27,NE,53,1.0,3.1,21,0.00,,,-99.99,FreeWX-Wi 1.02,2013-01-17 15:45:00,
2013-01-17 07:50:00,54.7,14.4,30.27,NE,52,1.0,4.9,20,0.00,,,-99.99,FreeWX-Wi 1.02,2013-01-17 15:50:00,
2013-01-17 07:55:00,56.3,15.8,30.27,NE,44,1.0,5.8,20,0.00,,,-99.99,FreeWX-Wi 1.02,2013-01-17 15:55:00,
2013-01-17 08:00:00,57.4,15.4,30.27,NE,40,2.0,8.3,19,0.00,,,-99.99,FreeWX-Wi 1.02,2013-01-17 16:00:00,
2013-01-17 08:05:00,56.7,16.0,30.27,NE,44,2.0,4.0,20,0.00,,,-99.99,FreeWX-Wi 1.02,2013-01-17 16:05:00,
2013-01-17 08:10:00,56.8,16.2,30.27,NE,46,2.0,4.9,20,0.00,,,-99.99,FreeWX-Wi 1.02,2013-01-17 16:10:00,
2013-01-17 08:15:00,57.2,15.3,30.27,NE,42,2.0,4.9,19,0.00,,,-99.99,FreeWX-Wi 1.02,2013-01-17 16:15:00,
2013-01-17 08:20:00,57.0,16.3,30.27,NE,40,2.0,0.0,20,0.00,,,-99.99,FreeWX-Wi 1.02,2013-01-17 16:20:00,
2013-01-17 08:25:00,58.1,16.2,30.27,NE,43,2.0,3.6,19,0.00,,,-99.99,FreeWX-Wi 1.02,2013-01-17 16:25:00,
2013-01-17 08:30:00,58.5,16.3,30.27,NE,42,1.0,4.9,19,0.00,,,-99.99,FreeWX-Wi 1.02,2013-01-17 16:30:00,
2013-01-17 08:35:00,58.6,16.5,30.27,NE,44,1.0,4.9,19,0.00,,,-99.99,FreeWX-Wi 1.02,2013-01-17 16:35:00,
2013-01-17 08:40:00,58.6,16.5,30.27,NE,54,1.0,3.1,19,0.00,,,-99.99,FreeWX-Wi 1.02,2013-01-17 16:40:00,
2013-01-17 08:45:00,58.8,16.7,30.27,ENE,72,1.0,0.0,19,0.00,,,-99.99,FreeWX-Wi 1.02,2013-01-17 16:45:00,
2013-01-17 08:50:00,59.2,16.9,30.27,East,91,1.0,4.0,19,0.00,,,-99.99,FreeWX-Wi 1.02,2013-01-17 16:50:00,
2013-01-17 08:55:00,59.4,17.1,30.27,ESE,111,1.0,4.9,19,0.00,,,-99.99,FreeWX-Wi 1.02,2013-01-17 16:55:00,
2013-01-17 09:00:00,59.7,17.4,30.27,SE,132,1.0,4.9,19,0.00,,,-99.99,FreeWX-Wi 1.02,2013-01-17 17:00:00,
2013-01-17 09:05:00,60.4,18.0,30.27,SE,135,1.0,8.7,19,0.00,,,-99.99,FreeWX-Wi 1.02,2013-01-17 17:05:00,
2013-01-17 09:10:00,61.3,18.7,30.27,SE,129,2.0,7.6,19,0.00,,,-99.99,FreeWX-Wi 1.02,2013-01-17 17:10:00,
2013-01-17 09:15:00,62.4,19.6,30.27,ESE,115,3.0,8.7,19,0.00,,,-99.99,FreeWX-Wi 1.02,2013-01-17 17:15:00,
2013-01-17 09:20:00,63.0,18.9,30.27,East,96,4.0,10.5,18,0.00,,,-99.99,FreeWX-Wi 1.02,2013-01-17 17:20:00,
2013-01-17 09:25:00,63.0,18.9,30.27,East,83,4.0,7.2,18,0.00,,,-99.99,FreeWX-Wi 1.02,2013-01-17 17:25:00,
2013-01-17 09:30:00,63.7,19.4,30.30,ENE,76,4.0,11.9,18,0.00,,,-99.99,FreeWX-Wi 1.02,2013-01-17 17:30:00,
2013-01-17 09:35:00,63.9,19.6,30.30,ENE,69,5.0,7.6,18,0.00,,,-99.99,FreeWX-Wi 1.02,2013-01-17 17:35:00,
2013-01-17 09:40:00,64.0,19.8,30.30,ENE,69,5.0,6.3,18,0.00,,,-99.99,FreeWX-Wi 1.02,2013-01-17 17:40:00,
2013-01-17 09:45:00,64.4,19.9,30.30,ENE,77,5.0,8.1,18,0.00,,,-99.99,FreeWX-Wi 1.02,2013-01-17 17:45:00,
2013-01-17 09:50:00,64.6,20.1,30.30,East,81,5.0,10.1,18,0.00,,,-99.99,FreeWX-Wi 1.02,2013-01-17 17:50:00,
2013-01-17 09:55:00,64.8,20.3,30.30,ENE,78,5.0,8.3,18,0.00,,,-99.99,FreeWX-Wi 1.02,2013-01-17 17:55:00,
2013-01-17 10:00:00,65.1,20.5,30.27,ENE,74,5.0,6.3,18,0.00,,,-99.99,FreeWX-Wi 1.02,2013-01-17 18:00:00,
2013-01-17 10:05:00,65.5,20.8,30.27,ENE,73,5.0,10.1,18,0.00,,,-99.99,FreeWX-Wi 1.02,2013-01-17 18:05:00,
2013-01-17 10:10:00,65.5,20.8,30.27,East,83,4.0,6.3,18,0.00,,,-99.99,FreeWX-Wi 1.02,2013-01-17 18:10:00,
2013-01-17 10:15:00,65.7,21.0,30.27,East,89,4.0,4.5,18,0.00,,,-99.99,FreeWX-Wi 1.02,2013-01-17 18:15:00,
2013-01-17 10:20:00,65.8,21.2,30.27,East,81,4.0,10.1,18,0.00,,,-99.99,FreeWX-Wi 1.02,2013-01-17 18:20:00,
2013-01-17 10:25:00,66.2,20.1,30.27,ENE,77,4.0,8.7,17,0.00,,,-99.99,FreeWX-Wi 1.02,2013-01-17 18:25:00,
2013-01-17 10:30:00,66.7,20.5,30.27,ENE,73,4.0,7.6,17,0.00,,,-99.99,FreeWX-Wi 1.02,2013-01-17 18:30:00,
2013-01-17 10:35:00,66.9,20.7,30.27,ENE,67,4.0,8.1,17,0.00,,,-99.99,FreeWX-Wi 1.02,2013-01-17 18:35:00,
2013-01-17 10:40:00,66.9,20.7,30.27,NE,46,5.0,11.0,17,0.00,,,-99.99,FreeWX-Wi 1.02,2013-01-17 18:40:00,
2013-01-17 10:45:00,67.3,21.0,30.27,NE,47,5.0,11.0,17,0.00,,,-99.99,FreeWX-Wi 1.02,2013-01-17 18:45:00,
2013-01-17 10:50:00,67.6,21.2,30.27,NE,53,5.0,8.1,17,0.00,,,-99.99,FreeWX-Wi 1.02,2013-01-17 18:50:00,
2013-01-17 10:55:00,67.8,21.4,30.27,NE,54,5.0,8.3,17,0.00,,,-99.99,FreeWX-Wi 1.02,2013-01-17 18:55:00,
2013-01-17 11:00:00,68.2,21.7,30.27,NE,55,5.0,8.3,17,0.00,,,-99.99,FreeWX-Wi 1.02,2013-01-17 19:00:00,
2013-01-17 11:05:00,68.4,21.9,30.27,ENE,63,5.0,8.1,17,0.00,,,-99.99,FreeWX-Wi 1.02,2013-01-17 19:05:00,
2013-01-17 11:10:00,68.7,22.1,30.27,ENE,74,4.0,6.3,17,0.00,,,-99.99,FreeWX-Wi 1.02,2013-01-17 19:10:00,
2013-01-17 11:15:00,68.5,21.9,30.24,East,79,4.0,4.0,17,0.00,,,-99.99,FreeWX-Wi 1.02,2013-01-17 19:15:00,
2013-01-17 11:20:00,68.4,21.9,30.24,East,84,3.0,4.9,17,0.00,,,-99.99,FreeWX-Wi 1.02,2013-01-17 19:20:00,
2013-01-17 11:25:00,68.9,22.3,30.24,East,86,3.0,5.4,17,0.00,,,-99.99,FreeWX-Wi 1.02,2013-01-17 19:25:00,
2013-01-17 11:30:00,69.3,22.6,30.24,East,88,3.0,5.8,17,0.00,,,-99.99,FreeWX-Wi 1.02,2013-01-17 19:30:00,
2013-01-17 11:35:00,69.3,22.6,30.24,East,88,2.0,5.8,17,0.00,,,-99.99,FreeWX-Wi 1.02,2013-01-17 19:35:00,
2013-01-17 11:40:00,68.9,22.3,30.24,East,83,2.0,5.4,17,0.00,,,-99.99,FreeWX-Wi 1.02,2013-01-17 19:40:00,
2013-01-17 11:45:00,68.7,22.1,30.24,ENE,70,2.0,4.0,17,0.00,,,-99.99,FreeWX-Wi 1.02,2013-01-17 19:45:00,
2013-01-17 11:50:00,69.4,22.8,30.24,ENE,65,2.0,5.8,17,0.00,,,-99.99,FreeWX-Wi 1.02,2013-01-17 19:50:00,
2013-01-17 11:55:00,70.2,23.4,30.24,ENE,78,2.0,4.9,17,0.00,,,-99.99,FreeWX-Wi 1.02,2013-01-17 19:55:00,
2013-01-17 12:00:00,70.5,23.5,30.24,East,97,1.0,5.4,17,0.00,,,-99.99,FreeWX-Wi 1.02,2013-01-17 20:00:00,
2013-01-17 12:05:00,70.7,23.7,30.24,SE,133,2.0,5.8,17,0.00,,,-99.99,FreeWX-Wi 1.02,2013-01-17 20:05:00,
2013-01-17 12:10:00,71.1,24.1,30.24,SSE,162,2.0,4.0,17,0.00,,,-99.99,FreeWX-Wi 1.02,2013-01-17 20:10:00,
2013-01-17 12:15:00,71.2,24.3,30.21,South,175,2.0,4.9,17,0.00,,,-99.99,FreeWX-Wi 1.02,2013-01-17 20:15:00,
2013-01-17 12:20:00,72.0,23.4,30.21,South,170,3.0,6.3,16,0.00,,,-99.99,FreeWX-Wi 1.02,2013-01-17 20:20:00,
2013-01-17 12:25:00,72.0,23.4,30.21,SSE,161,3.0,5.8,16,0.00,,,-99.99,FreeWX-Wi 1.02,2013-01-17 20:25:00,
2013-01-17 12:30:00,72.0,23.4,30.21,SSE,157,2.0,3.6,16,0.00,,,-99.99,FreeWX-Wi 1.02,2013-01-17 20:30:00,
2013-01-17 12:35:00,70.7,23.7,30.21,SSE,155,3.0,8.1,17,0.00,,,-99.99,FreeWX-Wi 1.02,2013-01-17 20:35:00,
2013-01-17 12:40:00,71.4,24.3,30.21,SE,134,3.0,5.4,17,0.00,,,-99.99,FreeWX-Wi 1.02,2013-01-17 20:40:00,
2013-01-17 12:45:00,71.8,23.2,30.21,ESE,118,3.0,5.4,16,0.00,,,-99.99,FreeWX-Wi 1.02,2013-01-17 20:45:00,
2013-01-17 12:50:00,72.5,23.7,30.21,ESE,113,3.0,6.3,16,0.00,,,-99.99,FreeWX-Wi 1.02,2013-01-17 20:50:00,
2013-01-17 12:55:00,73.0,24.3,30.21,ESE,111,3.0,5.8,16,0.00,,,-99.99,FreeWX-Wi 1.02,2013-01-17 20:55:00,
2013-01-17 13:00:00,73.6,24.6,30.21,East,100,3.0,6.3,16,0.00,,,-99.99,FreeWX-Wi 1.02,2013-01-17 21:00:00,
2013-01-17 13:05:00,73.6,24.6,30.21,ESE,107,3.0,11.0,16,0.00,,,-99.99,FreeWX-Wi 1.02,2013-01-17 21:05:00,
2013-01-17 13:10:00,73.2,24.3,30.21,SE,127,3.0,6.3,16,0.00,,,-99.99,FreeWX-Wi 1.02,2013-01-17 21:10:00,
2013-01-17 13:15:00,73.2,24.3,30.21,SSE,155,4.0,8.7,16,0.00,,,-99.99,FreeWX-Wi 1.02,2013-01-17 21:15:00,
2013-01-17 13:20:00,73.0,24.3,30.21,South,185,4.0,10.5,16,0.00,,,-99.99,FreeWX-Wi 1.02,2013-01-17 21:20:00,
2013-01-17 13:25:00,73.4,24.4,30.21,SSW,212,4.0,8.3,16,0.00,,,-99.99,FreeWX-Wi 1.02,2013-01-17 21:25:00,
2013-01-17 13:30:00,73.4,24.4,30.18,SW,231,5.0,6.7,16,0.00,,,-99.99,FreeWX-Wi 1.02,2013-01-17 21:30:00,
2013-01-17 13:35:00,73.4,24.4,30.18,WSW,238,4.0,6.7,16,0.00,,,-99.99,FreeWX-Wi 1.02,2013-01-17 21:35:00,
2013-01-17 13:40:00,73.6,24.6,30.18,WSW,239,4.0,6.3,16,0.00,,,-99.99,FreeWX-Wi 1.02,2013-01-17 21:40:00,
2013-01-17 13:45:00,73.9,25.0,30.18,WSW,237,4.0,8.1,16,0.00,,,-99.99,FreeWX-Wi 1.02,2013-01-17 21:45:00,
2013-01-17 13:50:00,73.9,25.0,30.18,SW,232,4.0,7.6,16,0.00,,,-99.99,FreeWX-Wi 1.02,2013-01-17 21:50:00,
2013-01-17 13:55:00,73.9,25.0,30.18,SW,223,4.0,5.4,16,0.00,,,-99.99,FreeWX-Wi 1.02,2013-01-17 21:55:00,
2013-01-17 14:00:00,74.1,25.0,30.18,SW,216,4.0,6.3,16,0.00,,,-99.99,FreeWX-Wi 1.02,2013-01-17 22:00:00,
2013-01-17 14:05:00,73.9,25.0,30.18,SSW,213,4.0,7.2,16,0.00,,,-99.99,FreeWX-Wi 1.02,2013-01-17 22:05:00,
2013-01-17 14:10:00,73.9,25.0,30.18,SSW,212,4.0,5.8,16,0.00,,,-99.99,FreeWX-Wi 1.02,2013-01-17 22:10:00,
2013-01-17 14:15:00,73.8,24.8,30.18,SW,214,3.0,5.4,16,0.00,,,-99.99,FreeWX-Wi 1.02,2013-01-17 22:15:00,
2013-01-17 14:20:00,73.0,24.3,30.18,SW,221,3.0,6.3,16,0.00,,,-99.99,FreeWX-Wi 1.02,2013-01-17 22:20:00,
2013-01-17 14:25:00,73.4,24.4,30.18,SW,223,3.0,4.9,16,0.00,,,-99.99,FreeWX-Wi 1.02,2013-01-17 22:25:00,
2013-01-17 14:30:00,73.4,24.4,30.15,SW,228,3.0,5.8,16,0.00,,,-99.99,FreeWX-Wi 1.02,2013-01-17 22:30:00,
2013-01-17 14:35:00,73.6,24.6,30.15,SW,229,3.0,6.3,16,0.00,,,-99.99,FreeWX-Wi 1.02,2013-01-17 22:35:00,
2013-01-17 14:40:00,73.9,25.0,30.15,SW,229,3.0,6.7,16,0.00,,,-99.99,FreeWX-Wi 1.02,2013-01-17 22:40:00,
2013-01-17 14:45:00,74.3,25.2,30.18,SW,227,3.0,5.8,16,0.00,,,-99.99,FreeWX-Wi 1.02,2013-01-17 22:45:00,
2013-01-17 14:50:00,74.3,25.2,30.18,SW,223,2.0,6.3,16,0.00,,,-99.99,FreeWX-Wi 1.02,2013-01-17 22:50:00,
2013-01-17 14:55:00,74.3,25.2,30.18,SW,220,2.0,6.3,16,0.00,,,-99.99,FreeWX-Wi 1.02,2013-01-17 22:55:00,
2013-01-17 15:00:00,74.3,25.2,30.18,SW,217,3.0,6.3,16,0.00,,,-99.99,FreeWX-Wi 1.02,2013-01-17 23:00:00,
2013-01-17 15:05:00,73.8,24.8,30.18,SW,215,2.0,4.9,16,0.00,,,-99.99,FreeWX-Wi 1.02,2013-01-17 23:05:00,
2013-01-17 15:10:00,73.9,25.0,30.18,SSW,213,3.0,6.3,16,0.00,,,-99.99,FreeWX-Wi 1.02,2013-01-17 23:10:00,
2013-01-17 15:15:00,73.8,24.8,30.18,SSW,211,3.0,6.3,16,0.00,,,-99.99,FreeWX-Wi 1.02,2013-01-17 23:15:00,
2013-01-17 15:20:00,73.8,24.8,30.18,SSW,212,3.0,6.3,16,0.00,,,-99.99,FreeWX-Wi 1.02,2013-01-17 23:20:00,
2013-01-17 15:25:00,73.2,24.3,30.18,SW,215,3.0,6.3,16,0.00,,,-99.99,FreeWX-Wi 1.02,2013-01-17 23:25:00,
2013-01-17 15:30:00,73.2,24.3,30.18,SW,214,3.0,6.3,16,0.00,,,-99.99,FreeWX-Wi 1.02,2013-01-17 23:30:00,
2013-01-17 15:35:00,72.7,23.9,30.18,SW,214,3.0,4.9,16,0.00,,,-99.99,FreeWX-Wi 1.02,2013-01-17 23:35:00,
2013-01-17 15:40:00,72.5,23.7,30.18,SSW,213,3.0,5.8,16,0.00,,,-99.99,FreeWX-Wi 1.02,2013-01-17 23:40:00,
2013-01-17 15:45:00,71.6,23.0,30.18,SSW,211,3.0,3.1,16,0.00,,,-99.99,FreeWX-Wi 1.02,2013-01-17 23:45:00,
2013-01-17 15:50:00,70.9,23.9,30.18,SSW,211,3.0,5.8,17,0.00,,,-99.99,FreeWX-Wi 1.02,2013-01-17 23:50:00,
2013-01-17 15:55:00,70.7,23.7,30.18,SSW,208,2.0,4.0,17,0.00,,,-99.99,FreeWX-Wi 1.02,2013-01-17 23:55:00,
2013-01-17 16:00:00,70.3,23.5,30.18,SSW,206,3.0,5.4,17,0.00,,,-99.99,FreeWX-Wi 1.02,2013-01-18 00:00:00,
2013-01-17 16:05:00,70.0,23.2,30.18,SSW,205,3.0,5.8,17,0.00,,,-99.99,FreeWX-Wi 1.02,2013-01-18 00:05:00,
2013-01-17 16:10:00,69.4,22.8,30.18,SSW,209,3.0,6.3,17,0.00,,,-99.99,FreeWX-Wi 1.02,2013-01-18 00:10:00,
2013-01-17 16:15:00,68.5,21.9,30.18,SW,217,3.0,7.2,17,0.00,,,-99.99,FreeWX-Wi 1.02,2013-01-18 00:15:00,
2013-01-17 16:20:00,67.3,21.0,30.18,SW,222,3.0,5.4,17,0.00,,,-99.99,FreeWX-Wi 1.02,2013-01-18 00:20:00,
2013-01-17 16:25:00,66.7,20.5,30.18,SW,227,4.0,8.7,17,0.00,,,-99.99,FreeWX-Wi 1.02,2013-01-18 00:25:00,
2013-01-17 16:30:00,66.6,20.5,30.21,SW,234,3.0,5.8,17,0.00,,,-99.99,FreeWX-Wi 1.02,2013-01-18 00:30:00,
2013-01-17 16:35:00,66.6,20.5,30.21,WSW,253,4.0,7.6,17,0.00,,,-99.99,FreeWX-Wi 1.02,2013-01-18 00:35:00,
2013-01-17 16:40:00,66.4,20.3,30.21,WNW,297,3.0,5.8,17,0.00,,,-99.99,FreeWX-Wi 1.02,2013-01-18 00:40:00,
2013-01-17 16:45:00,65.8,21.2,30.21,North,349,4.0,7.6,18,0.00,,,-99.99,FreeWX-Wi 1.02,2013-01-18 00:45:00,
2013-01-17 16:50:00,65.7,21.0,30.21,NNE,14,4.0,6.3,18,0.00,,,-99.99,FreeWX-Wi 1.02,2013-01-18 00:50:00,
2013-01-17 16:55:00,65.1,20.5,30.21,NNE,22,4.0,7.6,18,0.00,,,-99.99,FreeWX-Wi 1.02,2013-01-18 00:55:00,
2013-01-17 17:00:00,64.8,20.3,30.21,NNE,17,4.0,6.3,18,0.00,,,-99.99,FreeWX-Wi 1.02,2013-01-18 01:00:00,
2013-01-17 17:05:00,64.6,20.1,30.21,NNE,17,4.0,7.6,18,0.00,,,-99.99,FreeWX-Wi 1.02,2013-01-18 01:05:00,
2013-01-17 17:10:00,63.9,19.6,30.21,NNE,20,4.0,5.4,18,0.00,,,-99.99,FreeWX-Wi 1.02,2013-01-18 01:10:00,
2013-01-17 17:15:00,63.0,18.9,30.21,NNE,20,4.0,5.8,18,0.00,,,-99.99,FreeWX-Wi 1.02,2013-01-18 01:15:00,
2013-01-17 17:20:00,62.6,18.5,30.21,NNE,21,4.0,5.8,18,0.00,,,-99.99,FreeWX-Wi 1.02,2013-01-18 01:20:00,
2013-01-17 17:25:00,62.6,18.5,30.21,NNE,22,4.0,5.8,18,0.00,,,-99.99,FreeWX-Wi 1.02,2013-01-18 01:25:00,
2013-01-17 17:30:00,62.2,19.4,30.21,NNE,23,4.0,5.8,19,0.00,,,-99.99,FreeWX-Wi 1.02,2013-01-18 01:30:00,
2013-01-17 17:35:00,61.5,18.9,30.21,NNE,25,4.0,6.3,19,0.00,,,-99.99,FreeWX-Wi 1.02,2013-01-18 01:35:00,
2013-01-17 17:40:00,62.1,19.4,30.21,NNE,25,4.0,8.1,19,0.00,,,-99.99,FreeWX-Wi 1.02,2013-01-18 01:40:00,
2013-01-17 17:45:00,61.5,18.9,30.21,NNE,24,4.0,5.8,19,0.00,,,-99.99,FreeWX-Wi 1.02,2013-01-18 01:45:00,
2013-01-17 17:50:00,60.8,18.3,30.21,NNE,24,4.0,5.4,19,0.00,,,-99.99,FreeWX-Wi 1.02,2013-01-18 01:50:00,
2013-01-17 17:55:00,60.8,18.3,30.21,NNE,24,4.0,5.8,19,0.00,,,-99.99,FreeWX-Wi 1.02,2013-01-18 01:55:00,
2013-01-17 18:00:00,60.3,17.8,30.21,NNE,24,3.0,4.9,19,0.00,,,-99.99,FreeWX-Wi 1.02,2013-01-18 02:00:00,
2013-01-17 18:05:00,60.6,18.1,30.21,NNE,22,3.0,4.0,19,0.00,,,-99.99,FreeWX-Wi 1.02,2013-01-18 02:05:00,
2013-01-17 18:10:00,59.5,17.2,30.21,NNE,22,2.0,3.1,19,0.00,,,-99.99,FreeWX-Wi 1.02,2013-01-18 02:10:00,
2013-01-17 18:15:00,60.1,17.8,30.21,NNE,21,2.0,4.0,19,0.00,,,-99.99,FreeWX-Wi 1.02,2013-01-18 02:15:00,
2013-01-17 18:20:00,60.1,17.8,30.21,NNE,20,2.0,5.4,19,0.00,,,-99.99,FreeWX-Wi 1.02,2013-01-18 02:20:00,
2013-01-17 18:25:00,59.9,17.6,30.21,NNE,21,2.0,6.3,19,0.00,,,-99.99,FreeWX-Wi 1.02,2013-01-18 02:25:00,
2013-01-17 18:30:00,59.5,17.2,30.21,NNE,23,2.0,3.6,19,0.00,,,-99.99,FreeWX-Wi 1.02,2013-01-18 02:30:00,
2013-01-17 18:35:00,58.6,16.5,30.21,NNE,25,2.0,3.1,19,0.00,,,-99.99,FreeWX-Wi 1.02,2013-01-18 02:35:00,
2013-01-17 18:40:00,57.7,15.8,30.21,NNE,28,2.0,3.1,19,0.00,,,-99.99,FreeWX-Wi 1.02,2013-01-18 02:40:00,
2013-01-17 18:45:00,57.4,15.4,30.24,NNE,31,2.0,4.0,19,0.00,,,-99.99,FreeWX-Wi 1.02,2013-01-18 02:45:00,
2013-01-17 18:50:00,57.0,16.3,30.24,NNE,33,2.0,4.0,20,0.00,,,-99.99,FreeWX-Wi 1.02,2013-01-18 02:50:00,
2013-01-17 18:55:00,57.9,16.0,30.24,NE,34,2.0,8.1,19,0.00,,,-99.99,FreeWX-Wi 1.02,2013-01-18 02:55:00,
2013-01-17 19:00:00,58.3,16.2,30.21,NNE,33,2.0,6.3,19,0.00,,,-99.99,FreeWX-Wi 1.02,2013-01-18 03:00:00,
2013-01-17 19:05:00,57.6,15.6,30.21,NNE,33,2.0,3.6,19,0.00,,,-99.99,FreeWX-Wi 1.02,2013-01-18 03:05:00,
2013-01-17 19:10:00,57.9,16.0,30.21,NNE,33,2.0,10.1,19,0.00,,,-99.99,FreeWX-Wi 1.02,2013-01-18 03:10:00,
2013-01-17 19:15:00,59.0,16.9,30.21,NNE,33,3.0,11.0,19,0.00,,,-99.99,FreeWX-Wi 1.02,2013-01-18 03:15:00,
2013-01-17 19:20:00,59.5,17.2,30.21,NNE,32,4.0,10.1,19,0.00,,,-99.99,FreeWX-Wi 1.02,2013-01-18 03:20:00,
2013-01-17 19:25:00,59.9,17.6,30.21,NNE,33,4.0,8.7,19,0.00,,,-99.99,FreeWX-Wi 1.02,2013-01-18 03:25:00,
2013-01-17 19:30:00,59.7,17.4,30.21,NE,35,6.0,12.3,19,0.00,,,-99.99,FreeWX-Wi 1.02,2013-01-18 03:30:00,
2013-01-17 19:35:00,60.3,17.8,30.21,NE,35,7.0,11.4,19,0.00,,,-99.99,FreeWX-Wi 1.02,2013-01-18 03:35:00,
2013-01-17 19:40:00,60.4,18.0,30.21,NNE,33,7.0,8.7,19,0.00,,,-99.99,FreeWX-Wi 1.02,2013-01-18 03:40:00,
2013-01-17 19:45:00,60.4,18.0,30.21,NNE,31,7.0,10.5,19,0.00,,,-99.99,FreeWX-Wi 1.02,2013-01-18 03:45:00,
2013-01-17 19:50:00,60.6,18.1,30.21,NNE,30,7.0,11.0,19,0.00,,,-99.99,FreeWX-Wi 1.02,2013-01-18 03:50:00,
2013-01-17 19:56:00,60.4,18.0,30.21,NNE,29,7.0,12.3,19,0.00,,,-99.99,FreeWX-Wi 1.02,2013-01-18 03:56:00,
2013-01-17 20:01:00,60.4,18.0,30.21,NNE,27,7.0,10.1,19,0.00,,,-99.99,FreeWX-Wi 1.02,2013-01-18 04:01:00,
2013-01-17 20:06:00,61.2,18.5,30.21,NNE,27,7.0,11.4,19,0.00,,,-99.99,FreeWX-Wi 1.02,2013-01-18 04:06:00,
2013-01-17 20:11:00,60.8,18.3,30.21,NNE,27,7.0,11.0,19,0.00,,,-99.99,FreeWX-Wi 1.02,2013-01-18 04:11:00,
2013-01-17 20:16:00,60.8,18.3,30.21,NNE,28,7.0,12.3,19,0.00,,,-99.99,FreeWX-Wi 1.02,2013-01-18 04:16:00,
2013-01-17 20:21:00,60.8,18.3,30.21,NNE,28,7.0,12.8,19,0.00,,,-99.99,FreeWX-Wi 1.02,2013-01-18 04:21:00,
2013-01-17 20:26:00,60.6,18.1,30.21,NNE,26,8.0,12.3,19,0.00,,,-99.99,FreeWX-Wi 1.02,2013-01-18 04:26:00,
2013-01-17 20:31:00,60.4,18.0,30.21,NNE,26,8.0,9.6,19,0.00,,,-99.99,FreeWX-Wi 1.02,2013-01-18 04:31:00,
2013-01-17 20:36:00,60.6,18.1,30.21,NNE,25,8.0,12.3,19,0.00,,,-99.99,FreeWX-Wi 1.02,2013-01-18 04:36:00,
2013-01-17 20:41:00,60.6,18.1,30.21,NNE,24,8.0,10.5,19,0.00,,,-99.99,FreeWX-Wi 1.02,2013-01-18 04:41:00,
2013-01-17 20:46:00,60.4,18.0,30.21,NNE,22,7.0,10.1,19,0.00,,,-99.99,FreeWX-Wi 1.02,2013-01-18 04:46:00,
2013-01-17 20:51:00,60.3,17.8,30.21,NNE,22,7.0,12.8,19,0.00,,,-99.99,FreeWX-Wi 1.02,2013-01-18 04:51:00,
2013-01-17 20:56:00,59.9,17.6,30.21,NNE,22,7.0,8.7,19,0.00,,,-99.99,FreeWX-Wi 1.02,2013-01-18 04:56:00,
2013-01-17 21:01:00,59.9,17.6,30.21,NNE,22,6.0,8.1,19,0.00,,,-99.99,FreeWX-Wi 1.02,2013-01-18 05:01:00,
2013-01-17 21:06:00,59.4,17.1,30.21,NNE,24,6.0,6.3,19,0.00,,,-99.99,FreeWX-Wi 1.02,2013-01-18 05:06:00,
2013-01-17 21:11:00,58.3,16.2,30.21,NE,34,5.0,5.0,19,0.00,,,-99.99,FreeWX-Wi 1.02,2013-01-18 05:11:00,
2013-01-17 21:16:00,57.6,15.6,30.21,NE,46,4.0,5.8,19,0.00,,,-99.99,FreeWX-Wi 1.02,2013-01-18 05:16:00,
2013-01-17 21:21:00,57.4,15.4,30.21,ENE,61,3.0,6.3,19,0.00,,,-99.99,FreeWX-Wi 1.02,2013-01-18 05:21:00,
2013-01-17 21:26:00,57.4,15.4,30.21,ENE,73,2.0,6.3,19,0.00,,,-99.99,FreeWX-Wi 1.02,2013-01-18 05:26:00,
2013-01-17 21:31:00,56.3,15.8,30.21,East,90,2.0,0.0,20,0.00,,,-99.99,FreeWX-Wi 1.02,2013-01-18 05:31:00,
2013-01-17 21:36:00,54.9,14.5,30.21,ESE,104,1.0,0.0,20,0.00,,,-99.99,FreeWX-Wi 1.02,2013-01-18 05:36:00,
2013-01-17 21:41:00,53.2,14.4,30.21,ESE,110,1.0,0.0,21,0.00,,,-99.99,FreeWX-Wi 1.02,2013-01-18 05:41:00,
2013-01-17 21:46:00,52.5,13.8,30.21,North,-999,0.0,0.0,21,0.00,,,-99.99,FreeWX-Wi 1.02,2013-01-18 05:46:00,
2013-01-17 21:51:00,51.8,13.1,30.21,North,-999,0.0,3.1,21,0.00,,,-99.99,FreeWX-Wi 1.02,2013-01-18 05:51:00,
2013-01-17 21:56:00,52.0,13.3,30.21,North,-999,0.0,3.6,21,0.00,,,-99.99,FreeWX-Wi 1.02,2013-01-18 05:56:00,
2013-01-17 22:01:00,52.0,13.3,30.21,North,-999,0.0,5.8,21,0.00,,,-99.99,FreeWX-Wi 1.02,2013-01-18 06:01:00,
2013-01-17 22:06:00,52.0,13.3,30.21,ESE,108,1.0,5.4,21,0.00,,,-99.99,FreeWX-Wi 1.02,2013-01-18 06:06:00,
2013-01-17 22:11:00,53.2,14.4,30.21,East,97,2.0,5.8,21,0.00,,,-99.99,FreeWX-Wi 1.02,2013-01-18 06:11:00,
2013-01-17 22:16:00,52.7,13.8,30.21,East,87,2.0,3.6,21,0.00,,,-99.99,FreeWX-Wi 1.02,2013-01-18 06:16:00,
2013-01-17 22:21:00,52.0,13.3,30.21,ENE,75,2.0,5.4,21,0.00,,,-99.99,FreeWX-Wi 1.02,2013-01-18 06:21:00,
2013-01-17 22:26:00,51.8,13.1,30.21,ENE,65,2.0,3.6,21,0.00,,,-99.99,FreeWX-Wi 1.02,2013-01-18 06:26:00,
2013-01-17 22:31:00,53.8,13.6,30.21,ENE,59,2.0,5.4,20,0.00,,,-99.99,FreeWX-Wi 1.02,2013-01-18 06:31:00,
2013-01-17 22:36:00,55.0,14.7,30.21,NE,54,2.0,5.8,20,0.00,,,-99.99,FreeWX-Wi 1.02,2013-01-18 06:36:00,
2013-01-17 22:41:00,55.2,14.9,30.21,NE,54,2.0,5.8,20,0.00,,,-99.99,FreeWX-Wi 1.02,2013-01-18 06:41:00,
2013-01-17 22:46:00,54.9,14.5,30.21,NE,52,2.0,6.3,20,0.00,,,-99.99,FreeWX-Wi 1.02,2013-01-18 06:46:00,
2013-01-17 22:51:00,54.9,14.5,30.21,NE,52,3.0,5.4,20,0.00,,,-99.99,FreeWX-Wi 1.02,2013-01-18 06:51:00,
2013-01-17 22:56:00,55.0,14.7,30.21,NE,50,3.0,7.6,20,0.00,,,-99.99,FreeWX-Wi 1.02,2013-01-18 06:56:00,
2013-01-17 23:01:00,55.6,15.1,30.21,NE,52,4.0,7.6,20,0.00,,,-99.99,FreeWX-Wi 1.02,2013-01-18 07:01:00,
2013-01-17 23:06:00,55.9,15.4,30.21,NE,51,4.0,8.7,20,0.00,,,-99.99,FreeWX-Wi 1.02,2013-01-18 07:06:00,
2013-01-17 23:11:00,56.7,16.0,30.21,NE,47,4.0,8.7,20,0.00,,,-99.99,FreeWX-Wi 1.02,2013-01-18 07:11:00,
2013-01-17 23:16:00,56.7,16.0,30.21,NE,47,5.0,7.2,20,0.00,,,-99.99,FreeWX-Wi 1.02,2013-01-18 07:16:00,
2013-01-17 23:21:00,56.8,16.2,30.21,NE,52,4.0,5.8,20,0.00,,,-99.99,FreeWX-Wi 1.02,2013-01-18 07:21:00,
2013-01-17 23:26:00,56.7,16.0,30.21,ENE,65,4.0,5.8,20,0.00,,,-99.99,FreeWX-Wi 1.02,2013-01-18 07:26:00,
2013-01-17 23:31:00,56.3,15.8,30.21,East,82,3.0,4.0,20,0.00,,,-99.99,FreeWX-Wi 1.02,2013-01-18 07:31:00,
2013-01-17 23:36:00,55.9,15.4,30.21,ESE,102,2.0,3.1,20,0.00,,,-99.99,FreeWX-Wi 1.02,2013-01-18 07:36:00,
2013-01-17 23:41:00,55.4,15.1,30.21,ESE,119,2.0,3.6,20,0.00,,,-99.99,FreeWX-Wi 1.02,2013-01-18 07:41:00,
2013-01-17 23:46:00,54.9,14.5,30.21,SE,132,1.0,3.1,20,0.00,,,-99.99,FreeWX-Wi 1.02,2013-01-18 07:46:00,
2013-01-17 23:51:00,54.7,14.4,30.21,SE,138,1.0,3.6,20,0.00,,,-99.99,FreeWX-Wi 1.02,2013-01-18 07:51:00,
2013-01-17 23:56:00,53.6,13.5,30.21,SE,138,1.0,3.1,20,0.00,,,-99.99,FreeWX-Wi 1.02,2013-01-18 07:56:00,